sensor_id;sensor_type;location;lat;lon;timestamp;temperature;humidity
13992;DHT22;7070;53.586;9.692;2024-01-15T00:02:21;2.60;92.50
13992;DHT22;7070;53.586;9.692;2024-01-15T00:04:47;2.60;92.50
13992;DHT22;7070;53.586;9.692;2024-01-15T00:07:16;2.70;92.40
13992;DHT22;7070;53.586;9.692;2024-01-15T00:09:42;2.70;92.40
13992;DHT22;7070;53.586;9.692;2024-01-15T00:12:09;2.70;92.50
13992;DHT22;7070;53.586;9.692;2024-01-15T00:14:36;2.80;92.40
13992;DHT22;7070;53.586;9.692;2024-01-15T00:17:03;2.80;92.30
13992;DHT22;7070;53.586;9.692;2024-01-15T00:19:30;2.80;92.40
13992;DHT22;7070;53.586;9.692;2024-01-15T00:21:57;2.80;92.30
13992;DHT22;7070;53.586;9.692;2024-01-15T00:24:26;2.80;92.40
13992;DHT22;7070;53.586;9.692;2024-01-15T00:26:53;2.80;92.30
13992;DHT22;7070;53.586;9.692;2024-01-15T00:29:21;2.80;92.30
13992;DHT22;7070;53.586;9.692;2024-01-15T00:31:48;2.80;92.10
13992;DHT22;7070;53.586;9.692;2024-01-15T00:34:15;2.80;92.00
13992;DHT22;7070;53.586;9.692;2024-01-15T00:36:42;2.80;92.00
13992;DHT22;7070;53.586;9.692;2024-01-15T00:39:09;2.80;92.00
13992;DHT22;7070;53.586;9.692;2024-01-15T00:41:37;2.80;92.10
13992;DHT22;7070;53.586;9.692;2024-01-15T00:44:04;2.70;92.10
13992;DHT22;7070;53.586;9.692;2024-01-15T00:46:31;2.70;92.20
13992;DHT22;7070;53.586;9.692;2024-01-15T00:48:58;2.80;92.30
13992;DHT22;7070;53.586;9.692;2024-01-15T00:51:28;2.80;92.30
13992;DHT22;7070;53.586;9.692;2024-01-15T00:53:55;2.80;92.30
13992;DHT22;7070;53.586;9.692;2024-01-15T00:56:22;2.90;92.40
13992;DHT22;7070;53.586;9.692;2024-01-15T00:58:50;2.90;92.40
13992;DHT22;7070;53.586;9.692;2024-01-15T01:01:17;2.90;92.30
13992;DHT22;7070;53.586;9.692;2024-01-15T01:03:44;2.90;92.20
13992;DHT22;7070;53.586;9.692;2024-01-15T01:06:11;2.90;92.10
13992;DHT22;7070;53.586;9.692;2024-01-15T01:08:38;2.90;92.10
13992;DHT22;7070;53.586;9.692;2024-01-15T01:11:05;2.80;92.30
13992;DHT22;7070;53.586;9.692;2024-01-15T01:13:33;2.80;92.30
13992;DHT22;7070;53.586;9.692;2024-01-15T01:16:01;2.80;92.30
13992;DHT22;7070;53.586;9.692;2024-01-15T01:18:29;2.90;92.30
13992;DHT22;7070;53.586;9.692;2024-01-15T01:20:55;2.90;92.40
13992;DHT22;7070;53.586;9.692;2024-01-15T01:23:22;2.90;92.40
13992;DHT22;7070;53.586;9.692;2024-01-15T01:25:49;2.90;92.50
13992;DHT22;7070;53.586;9.692;2024-01-15T01:28:16;2.90;92.70
13992;DHT22;7070;53.586;9.692;2024-01-15T01:30:43;3.00;92.40
13992;DHT22;7070;53.586;9.692;2024-01-15T01:33:11;3.00;92.40
13992;DHT22;7070;53.586;9.692;2024-01-15T01:35:38;3.00;92.70
13992;DHT22;7070;53.586;9.692;2024-01-15T01:38:05;3.00;92.30
13992;DHT22;7070;53.586;9.692;2024-01-15T01:40:32;3.00;92.10
13992;DHT22;7070;53.586;9.692;2024-01-15T01:42:59;3.00;92.10
13992;DHT22;7070;53.586;9.692;2024-01-15T01:45:25;2.90;91.90
13992;DHT22;7070;53.586;9.692;2024-01-15T01:47:52;2.90;91.80
13992;DHT22;7070;53.586;9.692;2024-01-15T01:50:21;2.80;91.80
13992;DHT22;7070;53.586;9.692;2024-01-15T01:52:51;2.80;91.90
13992;DHT22;7070;53.586;9.692;2024-01-15T01:55:19;2.70;92.00
13992;DHT22;7070;53.586;9.692;2024-01-15T01:57:47;2.70;92.20
13992;DHT22;7070;53.586;9.692;2024-01-15T02:00:14;2.70;92.10
13992;DHT22;7070;53.586;9.692;2024-01-15T02:02:42;2.70;92.30
13992;DHT22;7070;53.586;9.692;2024-01-15T02:05:09;2.70;92.30
13992;DHT22;7070;53.586;9.692;2024-01-15T02:07:38;2.80;92.30
13992;DHT22;7070;53.586;9.692;2024-01-15T02:10:05;2.80;92.30
13992;DHT22;7070;53.586;9.692;2024-01-15T02:12:32;2.80;92.40
13992;DHT22;7070;53.586;9.692;2024-01-15T02:14:59;2.90;92.40
13992;DHT22;7070;53.586;9.692;2024-01-15T02:17:26;2.90;92.50
13992;DHT22;7070;53.586;9.692;2024-01-15T02:19:53;2.90;92.30
13992;DHT22;7070;53.586;9.692;2024-01-15T02:22:20;2.80;92.10
13992;DHT22;7070;53.586;9.692;2024-01-15T02:24:48;2.80;92.00
13992;DHT22;7070;53.586;9.692;2024-01-15T02:27:16;2.80;92.00
13992;DHT22;7070;53.586;9.692;2024-01-15T02:29:43;2.80;92.10
13992;DHT22;7070;53.586;9.692;2024-01-15T02:32:10;2.70;92.10
13992;DHT22;7070;53.586;9.692;2024-01-15T02:34:37;2.80;92.10
13992;DHT22;7070;53.586;9.692;2024-01-15T02:37:04;2.70;92.20
13992;DHT22;7070;53.586;9.692;2024-01-15T02:39:30;2.70;92.30
13992;DHT22;7070;53.586;9.692;2024-01-15T02:41:59;2.80;92.40
13992;DHT22;7070;53.586;9.692;2024-01-15T02:44:26;3.60;92.60
13992;DHT22;7070;53.586;9.692;2024-01-15T02:46:52;2.80;92.30
13992;DHT22;7070;53.586;9.692;2024-01-15T02:49:20;2.80;92.30
13992;DHT22;7070;53.586;9.692;2024-01-15T02:51:47;2.80;92.30
13992;DHT22;7070;53.586;9.692;2024-01-15T02:54:14;2.80;92.30
13992;DHT22;7070;53.586;9.692;2024-01-15T02:56:41;2.90;92.40
13992;DHT22;7070;53.586;9.692;2024-01-15T02:59:09;2.80;92.40
13992;DHT22;7070;53.586;9.692;2024-01-15T03:01:36;2.90;92.40
13992;DHT22;7070;53.586;9.692;2024-01-15T03:04:03;2.90;92.50
13992;DHT22;7070;53.586;9.692;2024-01-15T03:06:29;3.00;92.50
13992;DHT22;7070;53.586;9.692;2024-01-15T03:08:56;3.00;92.50
13992;DHT22;7070;53.586;9.692;2024-01-15T03:11:24;3.10;92.50
13992;DHT22;7070;53.586;9.692;2024-01-15T03:13:51;3.20;92.70
13992;DHT22;7070;53.586;9.692;2024-01-15T03:16:20;3.20;92.40
13992;DHT22;7070;53.586;9.692;2024-01-15T03:18:46;3.20;92.30
13992;DHT22;7070;53.586;9.692;2024-01-15T03:21:13;3.20;92.50
13992;DHT22;7070;53.586;9.692;2024-01-15T03:23:40;3.20;92.50
13992;DHT22;7070;53.586;9.692;2024-01-15T03:26:07;3.30;92.60
13992;DHT22;7070;53.586;9.692;2024-01-15T03:28:34;3.30;92.60
13992;DHT22;7070;53.586;9.692;2024-01-15T03:31:01;3.40;92.70
13992;DHT22;7070;53.586;9.692;2024-01-15T03:33:29;3.40;92.60
13992;DHT22;7070;53.586;9.692;2024-01-15T03:35:56;3.40;92.40
13992;DHT22;7070;53.586;9.692;2024-01-15T03:38:23;3.30;92.10
13992;DHT22;7070;53.586;9.692;2024-01-15T03:40:50;3.30;91.80
13992;DHT22;7070;53.586;9.692;2024-01-15T03:43:17;3.20;91.80
13992;DHT22;7070;53.586;9.692;2024-01-15T03:45:44;3.10;91.50
13992;DHT22;7070;53.586;9.692;2024-01-15T03:48:11;3.00;91.50
13992;DHT22;7070;53.586;9.692;2024-01-15T03:50:40;2.90;91.80
13992;DHT22;7070;53.586;9.692;2024-01-15T03:53:06;2.80;91.40
13992;DHT22;7070;53.586;9.692;2024-01-15T03:55:33;2.80;91.60
13992;DHT22;7070;53.586;9.692;2024-01-15T03:58:00;2.70;91.70
13992;DHT22;7070;53.586;9.692;2024-01-15T04:00:27;2.60;91.80
13992;DHT22;7070;53.586;9.692;2024-01-15T04:02:54;2.60;91.90
13992;DHT22;7070;53.586;9.692;2024-01-15T04:05:21;2.60;92.00
13992;DHT22;7070;53.586;9.692;2024-01-15T04:07:49;2.70;92.00
13992;DHT22;7070;53.586;9.692;2024-01-15T04:10:16;2.70;92.10
13992;DHT22;7070;53.586;9.692;2024-01-15T04:12:43;2.70;92.20
13992;DHT22;7070;53.586;9.692;2024-01-15T04:15:11;2.80;92.30
13992;DHT22;7070;53.586;9.692;2024-01-15T04:17:38;2.80;92.30
13992;DHT22;7070;53.586;9.692;2024-01-15T04:20:06;2.80;92.30
13992;DHT22;7070;53.586;9.692;2024-01-15T04:22:34;2.90;92.20
13992;DHT22;7070;53.586;9.692;2024-01-15T04:25:03;2.90;92.40
13992;DHT22;7070;53.586;9.692;2024-01-15T04:27:30;2.80;92.10
13992;DHT22;7070;53.586;9.692;2024-01-15T04:29:57;2.80;92.00
13992;DHT22;7070;53.586;9.692;2024-01-15T04:32:24;2.80;92.10
13992;DHT22;7070;53.586;9.692;2024-01-15T04:34:51;2.80;92.00
13992;DHT22;7070;53.586;9.692;2024-01-15T04:37:18;2.90;92.10
13992;DHT22;7070;53.586;9.692;2024-01-15T04:39:45;2.80;92.40
13992;DHT22;7070;53.586;9.692;2024-01-15T04:42:13;2.70;92.00
13992;DHT22;7070;53.586;9.692;2024-01-15T04:44:40;2.60;91.80
13992;DHT22;7070;53.586;9.692;2024-01-15T04:47:06;2.70;91.90
13992;DHT22;7070;53.586;9.692;2024-01-15T04:49:33;2.70;91.90
13992;DHT22;7070;53.586;9.692;2024-01-15T04:52:00;2.60;91.80
13992;DHT22;7070;53.586;9.692;2024-01-15T04:54:27;2.60;91.70
13992;DHT22;7070;53.586;9.692;2024-01-15T04:56:54;2.60;91.80
13992;DHT22;7070;53.586;9.692;2024-01-15T04:59:22;2.50;91.80
13992;DHT22;7070;53.586;9.692;2024-01-15T05:01:49;2.40;91.80
13992;DHT22;7070;53.586;9.692;2024-01-15T05:04:17;2.50;91.70
13992;DHT22;7070;53.586;9.692;2024-01-15T05:06:44;2.40;91.60
13992;DHT22;7070;53.586;9.692;2024-01-15T05:09:11;2.30;91.60
13992;DHT22;7070;53.586;9.692;2024-01-15T05:11:38;2.40;91.80
13992;DHT22;7070;53.586;9.692;2024-01-15T05:14:05;2.40;91.90
13992;DHT22;7070;53.586;9.692;2024-01-15T05:16:34;2.40;92.00
13992;DHT22;7070;53.586;9.692;2024-01-15T05:19:01;2.50;92.40
13992;DHT22;7070;53.586;9.692;2024-01-15T05:21:27;2.50;92.20
13992;DHT22;7070;53.586;9.692;2024-01-15T05:23:54;2.60;92.40
13992;DHT22;7070;53.586;9.692;2024-01-15T05:26:21;2.70;92.50
13992;DHT22;7070;53.586;9.692;2024-01-15T05:28:48;2.80;92.40
13992;DHT22;7070;53.586;9.692;2024-01-15T05:31:15;2.80;92.40
13992;DHT22;7070;53.586;9.692;2024-01-15T05:33:43;3.00;92.60
13992;DHT22;7070;53.586;9.692;2024-01-15T05:36:10;3.00;92.50
13992;DHT22;7070;53.586;9.692;2024-01-15T05:38:37;3.10;92.80
13992;DHT22;7070;53.586;9.692;2024-01-15T05:41:05;3.20;92.50
13992;DHT22;7070;53.586;9.692;2024-01-15T05:43:32;3.30;92.50
13992;DHT22;7070;53.586;9.692;2024-01-15T05:45:58;3.30;92.60
13992;DHT22;7070;53.586;9.692;2024-01-15T05:48:25;3.40;92.50
13992;DHT22;7070;53.586;9.692;2024-01-15T05:50:53;3.40;92.40
13992;DHT22;7070;53.586;9.692;2024-01-15T05:53:20;3.50;92.40
13992;DHT22;7070;53.586;9.692;2024-01-15T05:55:47;3.60;92.40
13992;DHT22;7070;53.586;9.692;2024-01-15T05:58:14;3.60;92.30
13992;DHT22;7070;53.586;9.692;2024-01-15T06:00:41;3.50;92.20
13992;DHT22;7070;53.586;9.692;2024-01-15T06:03:08;3.50;92.00
13992;DHT22;7070;53.586;9.692;2024-01-15T06:05:35;3.50;92.30
13992;DHT22;7070;53.586;9.692;2024-01-15T06:08:03;3.50;92.10
13992;DHT22;7070;53.586;9.692;2024-01-15T06:10:30;3.40;92.00
13992;DHT22;7070;53.586;9.692;2024-01-15T06:12:57;3.40;92.10
13992;DHT22;7070;53.586;9.692;2024-01-15T06:15:24;3.70;92.30
13992;DHT22;7070;53.586;9.692;2024-01-15T06:17:51;3.40;92.20
13992;DHT22;7070;53.586;9.692;2024-01-15T06:20:17;3.30;92.10
13992;DHT22;7070;53.586;9.692;2024-01-15T06:22:44;3.30;92.30
13992;DHT22;7070;53.586;9.692;2024-01-15T06:25:13;3.30;92.30
13992;DHT22;7070;53.586;9.692;2024-01-15T06:27:39;3.40;92.40
13992;DHT22;7070;53.586;9.692;2024-01-15T06:30:07;3.30;92.30
13992;DHT22;7070;53.586;9.692;2024-01-15T06:32:34;3.40;92.40
13992;DHT22;7070;53.586;9.692;2024-01-15T06:35:01;3.40;92.40
13992;DHT22;7070;53.586;9.692;2024-01-15T06:37:27;3.40;92.20
13992;DHT22;7070;53.586;9.692;2024-01-15T06:39:54;3.40;92.20
13992;DHT22;7070;53.586;9.692;2024-01-15T06:42:24;3.40;92.20
13992;DHT22;7070;53.586;9.692;2024-01-15T06:44:51;3.30;92.20
13992;DHT22;7070;53.586;9.692;2024-01-15T06:47:18;3.30;92.20
13992;DHT22;7070;53.586;9.692;2024-01-15T06:49:45;3.30;92.20
13992;DHT22;7070;53.586;9.692;2024-01-15T06:52:11;3.30;92.20
13992;DHT22;7070;53.586;9.692;2024-01-15T06:54:38;3.30;92.20
13992;DHT22;7070;53.586;9.692;2024-01-15T06:57:05;3.30;92.20
13992;DHT22;7070;53.586;9.692;2024-01-15T06:59:34;3.20;92.20
13992;DHT22;7070;53.586;9.692;2024-01-15T07:02:01;3.20;92.20
13992;DHT22;7070;53.586;9.692;2024-01-15T07:04:28;3.30;92.20
13992;DHT22;7070;53.586;9.692;2024-01-15T07:06:55;3.20;92.10
13992;DHT22;7070;53.586;9.692;2024-01-15T07:09:22;3.20;92.20
13992;DHT22;7070;53.586;9.692;2024-01-15T07:11:49;3.20;92.40
13992;DHT22;7070;53.586;9.692;2024-01-15T07:14:16;3.30;92.30
13992;DHT22;7070;53.586;9.692;2024-01-15T07:16:44;3.30;92.30
13992;DHT22;7070;53.586;9.692;2024-01-15T07:19:11;3.30;92.30
13992;DHT22;7070;53.586;9.692;2024-01-15T07:21:38;3.30;92.40
13992;DHT22;7070;53.586;9.692;2024-01-15T07:24:08;3.40;92.50
13992;DHT22;7070;53.586;9.692;2024-01-15T07:26:35;3.40;92.50
13992;DHT22;7070;53.586;9.692;2024-01-15T07:29:01;3.40;92.40
13992;DHT22;7070;53.586;9.692;2024-01-15T07:31:29;3.40;92.40
13992;DHT22;7070;53.586;9.692;2024-01-15T07:33:57;3.40;92.40
13992;DHT22;7070;53.586;9.692;2024-01-15T07:36:24;3.40;92.30
13992;DHT22;7070;53.586;9.692;2024-01-15T07:38:50;3.40;92.30
13992;DHT22;7070;53.586;9.692;2024-01-15T07:41:17;3.40;92.30
13992;DHT22;7070;53.586;9.692;2024-01-15T07:43:44;3.40;92.30
13992;DHT22;7070;53.586;9.692;2024-01-15T07:46:11;3.40;92.40
13992;DHT22;7070;53.586;9.692;2024-01-15T07:48:38;3.40;92.30
13992;DHT22;7070;53.586;9.692;2024-01-15T07:51:06;3.30;92.20
13992;DHT22;7070;53.586;9.692;2024-01-15T07:53:33;3.40;92.30
13992;DHT22;7070;53.586;9.692;2024-01-15T07:56:00;3.40;92.30
13992;DHT22;7070;53.586;9.692;2024-01-15T07:58:26;3.40;92.30
13992;DHT22;7070;53.586;9.692;2024-01-15T08:00:53;3.30;92.20
13992;DHT22;7070;53.586;9.692;2024-01-15T08:03:20;3.40;92.30
13992;DHT22;7070;53.586;9.692;2024-01-15T08:05:47;3.30;92.40
13992;DHT22;7070;53.586;9.692;2024-01-15T08:08:17;3.30;92.80
13992;DHT22;7070;53.586;9.692;2024-01-15T08:10:44;3.40;92.50
13992;DHT22;7070;53.586;9.692;2024-01-15T08:13:11;3.40;92.50
13992;DHT22;7070;53.586;9.692;2024-01-15T08:15:38;3.40;92.40
13992;DHT22;7070;53.586;9.692;2024-01-15T08:18:05;3.50;92.50
13992;DHT22;7070;53.586;9.692;2024-01-15T08:20:32;3.50;92.50
13992;DHT22;7070;53.586;9.692;2024-01-15T08:22:59;3.50;92.50
13992;DHT22;7070;53.586;9.692;2024-01-15T08:25:27;3.50;92.50
13992;DHT22;7070;53.586;9.692;2024-01-15T08:27:53;3.50;92.50
13992;DHT22;7070;53.586;9.692;2024-01-15T08:30:20;3.50;92.40
13992;DHT22;7070;53.586;9.692;2024-01-15T08:32:50;3.60;92.50
13992;DHT22;7070;53.586;9.692;2024-01-15T08:35:17;3.60;92.50
13992;DHT22;7070;53.586;9.692;2024-01-15T08:37:48;3.60;92.50
13992;DHT22;7070;53.586;9.692;2024-01-15T08:40:15;3.70;92.80
13992;DHT22;7070;53.586;9.692;2024-01-15T08:42:43;3.60;92.40
13992;DHT22;7070;53.586;9.692;2024-01-15T08:45:11;3.60;92.30
13992;DHT22;7070;53.586;9.692;2024-01-15T08:47:38;3.60;92.60
13992;DHT22;7070;53.586;9.692;2024-01-15T08:50:06;3.60;92.20
13992;DHT22;7070;53.586;9.692;2024-01-15T08:52:35;3.60;92.20
13992;DHT22;7070;53.586;9.692;2024-01-15T08:55:03;3.60;92.20
13992;DHT22;7070;53.586;9.692;2024-01-15T08:57:32;3.60;92.30
13992;DHT22;7070;53.586;9.692;2024-01-15T09:00:00;3.60;92.50
13992;DHT22;7070;53.586;9.692;2024-01-15T09:02:29;3.60;92.20
13992;DHT22;7070;53.586;9.692;2024-01-15T09:04:56;3.60;92.30
13992;DHT22;7070;53.586;9.692;2024-01-15T09:07:23;3.60;92.30
13992;DHT22;7070;53.586;9.692;2024-01-15T09:09:50;3.60;92.30
13992;DHT22;7070;53.586;9.692;2024-01-15T09:12:17;3.60;92.40
13992;DHT22;7070;53.586;9.692;2024-01-15T09:14:46;3.60;92.40
13992;DHT22;7070;53.586;9.692;2024-01-15T09:17:14;3.60;92.40
13992;DHT22;7070;53.586;9.692;2024-01-15T09:19:41;3.70;92.40
13992;DHT22;7070;53.586;9.692;2024-01-15T09:22:08;3.70;92.50
13992;DHT22;7070;53.586;9.692;2024-01-15T09:24:35;3.70;92.30
13992;DHT22;7070;53.586;9.692;2024-01-15T09:27:02;3.70;92.20
13992;DHT22;7070;53.586;9.692;2024-01-15T09:29:29;3.70;92.10
13992;DHT22;7070;53.586;9.692;2024-01-15T09:31:57;3.70;92.10
13992;DHT22;7070;53.586;9.692;2024-01-15T09:34:25;3.70;92.10
13992;DHT22;7070;53.586;9.692;2024-01-15T09:36:52;3.70;92.30
13992;DHT22;7070;53.586;9.692;2024-01-15T09:39:19;3.70;92.30
13992;DHT22;7070;53.586;9.692;2024-01-15T09:41:47;3.80;92.40
13992;DHT22;7070;53.586;9.692;2024-01-15T09:44:15;3.80;92.50
13992;DHT22;7070;53.586;9.692;2024-01-15T09:46:43;3.90;92.50
13992;DHT22;7070;53.586;9.692;2024-01-15T09:49:10;3.90;92.50
13992;DHT22;7070;53.586;9.692;2024-01-15T09:51:39;4.00;92.60
13992;DHT22;7070;53.586;9.692;2024-01-15T09:54:06;4.20;92.70
13992;DHT22;7070;53.586;9.692;2024-01-15T09:56:34;4.20;92.60
13992;DHT22;7070;53.586;9.692;2024-01-15T09:59:01;4.20;92.50
13992;DHT22;7070;53.586;9.692;2024-01-15T10:01:31;4.30;92.50
13992;DHT22;7070;53.586;9.692;2024-01-15T10:03:58;4.30;92.40
13992;DHT22;7070;53.586;9.692;2024-01-15T10:06:27;4.20;92.30
13992;DHT22;7070;53.586;9.692;2024-01-15T10:08:56;4.20;92.20
13992;DHT22;7070;53.586;9.692;2024-01-15T10:11:24;4.20;92.20
13992;DHT22;7070;53.586;9.692;2024-01-15T10:13:51;4.10;92.50
13992;DHT22;7070;53.586;9.692;2024-01-15T10:16:18;4.00;92.20
13992;DHT22;7070;53.586;9.692;2024-01-15T10:18:45;4.10;92.30
13992;DHT22;7070;53.586;9.692;2024-01-15T10:21:12;4.00;92.30
13992;DHT22;7070;53.586;9.692;2024-01-15T10:23:40;4.00;92.30
13992;DHT22;7070;53.586;9.692;2024-01-15T10:26:08;4.00;92.70
13992;DHT22;7070;53.586;9.692;2024-01-15T10:28:37;4.00;92.40
13992;DHT22;7070;53.586;9.692;2024-01-15T10:31:05;4.00;92.40
13992;DHT22;7070;53.586;9.692;2024-01-15T10:33:31;4.00;92.40
13992;DHT22;7070;53.586;9.692;2024-01-15T10:36:00;4.00;92.40
13992;DHT22;7070;53.586;9.692;2024-01-15T10:38:27;4.00;92.50
13992;DHT22;7070;53.586;9.692;2024-01-15T10:40:55;4.00;92.40
13992;DHT22;7070;53.586;9.692;2024-01-15T10:43:24;4.00;92.40
13992;DHT22;7070;53.586;9.692;2024-01-15T10:45:51;4.00;92.20
13992;DHT22;7070;53.586;9.692;2024-01-15T10:48:19;3.90;91.40
13992;DHT22;7070;53.586;9.692;2024-01-15T10:50:46;3.80;90.30
13992;DHT22;7070;53.586;9.692;2024-01-15T10:53:16;3.60;90.00
13992;DHT22;7070;53.586;9.692;2024-01-15T10:55:43;3.30;90.10
13992;DHT22;7070;53.586;9.692;2024-01-15T10:58:14;3.20;90.40
13992;DHT22;7070;53.586;9.692;2024-01-15T11:00:44;3.00;90.80
13992;DHT22;7070;53.586;9.692;2024-01-15T11:03:11;3.00;91.10
13992;DHT22;7070;53.586;9.692;2024-01-15T11:05:38;2.90;91.40
13992;DHT22;7070;53.586;9.692;2024-01-15T11:08:06;2.90;91.60
13992;DHT22;7070;53.586;9.692;2024-01-15T11:10:40;2.80;91.90
13992;DHT22;7070;53.586;9.692;2024-01-15T11:13:13;2.80;92.10
13992;DHT22;7070;53.586;9.692;2024-01-15T11:15:59;2.90;92.10
13992;DHT22;7070;53.586;9.692;2024-01-15T11:18:27;2.90;92.60
13992;DHT22;7070;53.586;9.692;2024-01-15T11:21:24;2.90;92.30
13992;DHT22;7070;53.586;9.692;2024-01-15T11:23:54;3.00;92.10
13992;DHT22;7070;53.586;9.692;2024-01-15T11:26:34;3.10;92.50
13992;DHT22;7070;53.586;9.692;2024-01-15T11:29:03;3.10;92.50
13992;DHT22;7070;53.586;9.692;2024-01-15T11:31:59;3.20;92.60
13992;DHT22;7070;53.586;9.692;2024-01-15T11:34:55;3.20;92.20
13992;DHT22;7070;53.586;9.692;2024-01-15T11:37:26;3.20;92.20
13992;DHT22;7070;53.586;9.692;2024-01-15T11:39:53;3.30;92.50
13992;DHT22;7070;53.586;9.692;2024-01-15T11:42:21;3.20;92.30
13992;DHT22;7070;53.586;9.692;2024-01-15T11:44:48;3.30;92.50
13992;DHT22;7070;53.586;9.692;2024-01-15T11:47:36;3.30;92.50
13992;DHT22;7070;53.586;9.692;2024-01-15T11:50:08;3.30;92.10
13992;DHT22;7070;53.586;9.692;2024-01-15T11:52:38;3.40;92.40
13992;DHT22;7070;53.586;9.692;2024-01-15T11:55:11;3.40;92.50
13992;DHT22;7070;53.586;9.692;2024-01-15T11:57:46;3.40;92.50
13992;DHT22;7070;53.586;9.692;2024-01-15T12:00:13;3.50;92.50
13992;DHT22;7070;53.586;9.692;2024-01-15T12:02:43;3.50;92.50
13992;DHT22;7070;53.586;9.692;2024-01-15T12:05:10;3.50;92.50
13992;DHT22;7070;53.586;9.692;2024-01-15T12:07:38;3.60;92.50
13992;DHT22;7070;53.586;9.692;2024-01-15T12:10:09;3.60;92.40
13992;DHT22;7070;53.586;9.692;2024-01-15T12:12:57;3.60;92.40
13992;DHT22;7070;53.586;9.692;2024-01-15T12:15:24;3.50;92.40
13992;DHT22;7070;53.586;9.692;2024-01-15T12:17:55;3.60;92.50
13992;DHT22;7070;53.586;9.692;2024-01-15T12:20:23;3.60;92.50
13992;DHT22;7070;53.586;9.692;2024-01-15T12:22:50;3.60;92.50
13992;DHT22;7070;53.586;9.692;2024-01-15T12:25:17;3.70;92.50
13992;DHT22;7070;53.586;9.692;2024-01-15T12:27:44;3.70;92.40
13992;DHT22;7070;53.586;9.692;2024-01-15T12:30:12;3.80;92.50
13992;DHT22;7070;53.586;9.692;2024-01-15T12:32:40;3.80;92.40
13992;DHT22;7070;53.586;9.692;2024-01-15T12:35:09;3.80;92.40
13992;DHT22;7070;53.586;9.692;2024-01-15T12:37:36;3.90;92.50
13992;DHT22;7070;53.586;9.692;2024-01-15T12:40:04;3.90;92.40
13992;DHT22;7070;53.586;9.692;2024-01-15T12:42:32;3.90;92.40
13992;DHT22;7070;53.586;9.692;2024-01-15T12:45:00;3.90;92.40
13992;DHT22;7070;53.586;9.692;2024-01-15T12:47:27;3.90;92.40
13992;DHT22;7070;53.586;9.692;2024-01-15T12:49:54;3.90;92.40
13992;DHT22;7070;53.586;9.692;2024-01-15T12:52:22;3.90;92.40
13992;DHT22;7070;53.586;9.692;2024-01-15T12:54:49;4.00;92.40
13992;DHT22;7070;53.586;9.692;2024-01-15T12:57:16;3.90;92.20
13992;DHT22;7070;53.586;9.692;2024-01-15T12:59:44;3.90;92.20
13992;DHT22;7070;53.586;9.692;2024-01-15T13:02:11;3.90;92.20
13992;DHT22;7070;53.586;9.692;2024-01-15T13:04:38;3.90;92.30
13992;DHT22;7070;53.586;9.692;2024-01-15T13:07:05;3.90;92.30
13992;DHT22;7070;53.586;9.692;2024-01-15T13:09:34;3.90;92.20
13992;DHT22;7070;53.586;9.692;2024-01-15T13:12:01;4.00;92.30
13992;DHT22;7070;53.586;9.692;2024-01-15T13:14:28;4.00;92.20
13992;DHT22;7070;53.586;9.692;2024-01-15T13:16:55;4.00;92.30
13992;DHT22;7070;53.586;9.692;2024-01-15T13:19:24;4.00;92.30
13992;DHT22;7070;53.586;9.692;2024-01-15T13:21:50;4.00;92.20
13992;DHT22;7070;53.586;9.692;2024-01-15T13:24:18;4.00;92.60
13992;DHT22;7070;53.586;9.692;2024-01-15T13:26:47;4.00;92.30
13992;DHT22;7070;53.586;9.692;2024-01-15T13:29:14;4.10;92.30
13992;DHT22;7070;53.586;9.692;2024-01-15T13:31:40;4.10;92.30
13992;DHT22;7070;53.586;9.692;2024-01-15T13:34:08;4.10;92.20
13992;DHT22;7070;53.586;9.692;2024-01-15T13:36:35;4.00;92.10
13992;DHT22;7070;53.586;9.692;2024-01-15T13:39:04;4.00;92.00
13992;DHT22;7070;53.586;9.692;2024-01-15T13:41:34;4.10;92.10
13992;DHT22;7070;53.586;9.692;2024-01-15T13:44:02;4.00;91.90
13992;DHT22;7070;53.586;9.692;2024-01-15T13:46:29;4.00;91.80
13992;DHT22;7070;53.586;9.692;2024-01-15T13:48:56;3.90;91.80
13992;DHT22;7070;53.586;9.692;2024-01-15T13:51:23;3.90;91.80
13992;DHT22;7070;53.586;9.692;2024-01-15T13:53:50;3.80;91.80
13992;DHT22;7070;53.586;9.692;2024-01-15T13:56:17;3.80;92.10
13992;DHT22;7070;53.586;9.692;2024-01-15T13:58:44;3.70;91.70
13992;DHT22;7070;53.586;9.692;2024-01-15T14:01:12;3.70;91.70
13992;DHT22;7070;53.586;9.692;2024-01-15T14:03:39;3.70;91.70
13992;DHT22;7070;53.586;9.692;2024-01-15T14:06:05;3.60;91.70
13992;DHT22;7070;53.586;9.692;2024-01-15T14:08:34;3.60;91.70
13992;DHT22;7070;53.586;9.692;2024-01-15T14:11:02;3.60;91.70
13992;DHT22;7070;53.586;9.692;2024-01-15T14:13:29;3.60;91.70
13992;DHT22;7070;53.586;9.692;2024-01-15T14:15:56;3.60;91.70
13992;DHT22;7070;53.586;9.692;2024-01-15T14:18:24;3.60;91.70
13992;DHT22;7070;53.586;9.692;2024-01-15T14:20:51;3.50;91.60
13992;DHT22;7070;53.586;9.692;2024-01-15T14:23:19;3.50;91.60
13992;DHT22;7070;53.586;9.692;2024-01-15T14:25:45;3.40;91.60
13992;DHT22;7070;53.586;9.692;2024-01-15T14:28:12;3.40;91.60
13992;DHT22;7070;53.586;9.692;2024-01-15T14:30:39;3.30;91.50
13992;DHT22;7070;53.586;9.692;2024-01-15T14:33:06;3.20;91.40
13992;DHT22;7070;53.586;9.692;2024-01-15T14:35:35;3.20;91.40
13992;DHT22;7070;53.586;9.692;2024-01-15T14:38:02;3.20;91.40
13992;DHT22;7070;53.586;9.692;2024-01-15T14:40:28;3.10;91.40
13992;DHT22;7070;53.586;9.692;2024-01-15T14:42:56;3.10;91.30
13992;DHT22;7070;53.586;9.692;2024-01-15T14:45:22;3.00;91.30
13992;DHT22;7070;53.586;9.692;2024-01-15T14:47:49;2.90;91.20
13992;DHT22;7070;53.586;9.692;2024-01-15T14:50:16;2.80;91.10
13992;DHT22;7070;53.586;9.692;2024-01-15T14:52:44;2.80;91.20
13992;DHT22;7070;53.586;9.692;2024-01-15T14:55:11;2.70;91.30
13992;DHT22;7070;53.586;9.692;2024-01-15T14:57:38;2.60;91.20
13992;DHT22;7070;53.586;9.692;2024-01-15T15:00:06;2.60;91.10
13992;DHT22;7070;53.586;9.692;2024-01-15T15:02:34;2.50;91.10
13992;DHT22;7070;53.586;9.692;2024-01-15T15:05:01;2.40;91.10
13992;DHT22;7070;53.586;9.692;2024-01-15T15:07:28;2.40;91.20
13992;DHT22;7070;53.586;9.692;2024-01-15T15:09:56;2.20;91.10
13992;DHT22;7070;53.586;9.692;2024-01-15T15:12:23;2.10;91.50
13992;DHT22;7070;53.586;9.692;2024-01-15T15:14:50;2.10;91.10
13992;DHT22;7070;53.586;9.692;2024-01-15T15:17:17;2.00;91.10
13992;DHT22;7070;53.586;9.692;2024-01-15T15:19:44;1.90;91.10
13992;DHT22;7070;53.586;9.692;2024-01-15T15:22:10;1.90;91.10
13992;DHT22;7070;53.586;9.692;2024-01-15T15:24:37;1.80;91.10
13992;DHT22;7070;53.586;9.692;2024-01-15T15:27:06;1.80;91.20
13992;DHT22;7070;53.586;9.692;2024-01-15T15:29:33;1.70;91.60
13992;DHT22;7070;53.586;9.692;2024-01-15T15:32:00;1.60;91.20
13992;DHT22;7070;53.586;9.692;2024-01-15T15:34:27;1.60;91.20
13992;DHT22;7070;53.586;9.692;2024-01-15T15:36:54;1.60;91.30
13992;DHT22;7070;53.586;9.692;2024-01-15T15:39:21;1.60;91.30
13992;DHT22;7070;53.586;9.692;2024-01-15T15:41:48;1.50;91.40
13992;DHT22;7070;53.586;9.692;2024-01-15T15:44:17;1.60;91.60
13992;DHT22;7070;53.586;9.692;2024-01-15T15:46:44;1.50;91.60
13992;DHT22;7070;53.586;9.692;2024-01-15T15:49:10;1.50;91.50
13992;DHT22;7070;53.586;9.692;2024-01-15T15:51:37;1.50;91.60
13992;DHT22;7070;53.586;9.692;2024-01-15T15:54:04;1.50;91.80
13992;DHT22;7070;53.586;9.692;2024-01-15T15:56:32;1.40;91.60
13992;DHT22;7070;53.586;9.692;2024-01-15T15:59:01;1.40;91.60
13992;DHT22;7070;53.586;9.692;2024-01-15T16:01:29;1.40;91.50
13992;DHT22;7070;53.586;9.692;2024-01-15T16:03:56;1.40;91.60
13992;DHT22;7070;53.586;9.692;2024-01-15T16:06:23;1.40;91.50